createdAt,value
2019-05-01T00:01:15.133Z,21.07
2019-05-01T00:04:03.373Z,22.10
2019-05-01T00:06:39.276Z,21.30
2019-05-01T00:09:10.195Z,21.07
2019-05-01T00:11:39.555Z,20.83
2019-05-01T00:14:09.553Z,21.90
2019-05-01T00:16:39.191Z,20.73
2019-05-01T00:19:08.601Z,22.23
2019-05-01T00:21:37.989Z,22.57
2019-05-01T00:24:07.371Z,20.87
2019-05-01T00:26:36.639Z,21.97
2019-05-01T00:29:06.416Z,21.70
2019-05-01T00:31:35.814Z,22.73
2019-05-01T00:34:05.083Z,24.57
2019-05-01T00:36:34.445Z,25.70
2019-05-01T00:39:04.302Z,25.43
2019-05-01T00:41:33.721Z,24.20
2019-05-01T00:44:03.018Z,25.20
2019-05-01T00:46:32.582Z,23.67
2019-05-01T00:49:02.126Z,23.47
2019-05-01T00:51:31.549Z,24.33
2019-05-01T00:54:00.997Z,24.00
2019-05-01T00:56:49.610Z,24.83
2019-05-01T00:59:26.689Z,24.90
2019-05-01T01:02:07.998Z,24.10
2019-05-01T01:04:37.268Z,22.73
2019-05-01T01:07:06.740Z,24.10
2019-05-01T01:09:36.160Z,24.13
2019-05-01T01:12:05.442Z,24.00
2019-05-01T01:14:34.830Z,22.70
2019-05-01T01:17:04.420Z,24.27
2019-05-01T01:19:33.736Z,23.67
2019-05-01T01:22:03.052Z,23.53
2019-05-01T01:24:32.627Z,23.83
2019-05-01T01:27:02.338Z,26.63
2019-05-01T01:29:31.839Z,24.57
2019-05-01T01:32:01.548Z,24.83
2019-05-01T01:34:31.065Z,25.30
2019-05-01T01:37:00.387Z,26.47
2019-05-01T01:39:30.181Z,21.07
2019-05-01T01:41:59.842Z,18.20
2019-05-01T01:44:43.833Z,21.80
2019-05-01T01:47:13.659Z,26.33
2019-05-01T01:49:42.905Z,26.10
2019-05-01T01:52:12.480Z,25.47
2019-05-01T01:54:41.828Z,24.93
2019-05-01T01:57:11.477Z,22.77
2019-05-01T01:59:41.126Z,23.13
2019-05-01T02:02:18.600Z,28.17
2019-05-01T02:05:07.539Z,30.27
2019-05-01T02:07:37.021Z,30.73
2019-05-01T02:10:07.492Z,29.07
2019-05-01T02:12:38.711Z,28.87
2019-05-01T02:15:08.679Z,28.90
2019-05-01T02:17:38.073Z,29.23
2019-05-01T02:20:08.668Z,31.27
2019-05-01T02:22:37.959Z,30.43
2019-05-01T02:25:09.621Z,30.37
2019-05-01T02:27:48.262Z,30.40
2019-05-01T02:30:19.370Z,29.87
2019-05-01T02:32:49.918Z,31.57
2019-05-01T02:35:20.207Z,31.40
2019-05-01T02:37:50.901Z,35.03
2019-05-01T02:40:57.103Z,35.27
2019-05-01T02:43:29.377Z,34.03
2019-05-01T02:46:01.667Z,33.27
2019-05-01T02:48:34.785Z,33.07
2019-05-01T02:51:05.415Z,36.83
2019-05-01T02:53:38.162Z,38.20
2019-05-01T02:56:20.777Z,35.47
2019-05-01T02:58:52.465Z,33.60
2019-05-01T03:01:23.224Z,29.70
2019-05-01T03:03:53.242Z,30.27
2019-05-01T03:06:23.291Z,28.83
2019-05-01T03:08:54.265Z,25.50
2019-05-01T03:11:23.686Z,24.43
2019-05-01T03:13:56.677Z,25.57
2019-05-01T03:16:27.346Z,24.50
2019-05-01T03:18:59.393Z,25.07
2019-05-01T03:21:34.451Z,28.00
2019-05-01T03:24:11.030Z,32.97
2019-05-01T03:26:40.398Z,34.77
2019-05-01T03:29:09.961Z,28.77
2019-05-01T03:31:39.839Z,28.60
2019-05-01T03:34:09.200Z,29.67
2019-05-01T03:36:38.963Z,29.77
2019-05-01T03:39:08.651Z,31.50
2019-05-01T03:41:37.973Z,33.70
2019-05-01T03:44:07.428Z,39.03
2019-05-01T03:46:38.045Z,47.23
2019-05-01T03:49:07.559Z,57.50
2019-05-01T03:51:37.182Z,66.63
2019-05-01T03:54:07.088Z,80.50
2019-05-01T03:56:36.555Z,76.00
2019-05-01T03:59:06.237Z,67.10
2019-05-01T04:01:53.444Z,56.80
2019-05-01T04:04:25.254Z,51.50
2019-05-01T04:06:55.150Z,54.17
2019-05-01T04:09:24.836Z,74.10
2019-05-01T04:11:54.320Z,77.53
2019-05-01T04:14:24.019Z,81.50
2019-05-01T04:16:59.801Z,60.73
2019-05-01T04:19:29.201Z,63.37
2019-05-01T04:22:08.640Z,49.87
2019-05-01T04:24:38.164Z,43.73
2019-05-01T04:27:09.277Z,42.50
2019-05-01T04:29:55.046Z,42.30
2019-05-01T04:32:50.899Z,42.37
2019-05-01T04:35:25.651Z,41.07
2019-05-01T04:37:59.527Z,38.40
2019-05-01T04:40:29.323Z,40.93
2019-05-01T04:42:59.014Z,43.63
2019-05-01T04:45:29.306Z,58.13
2019-05-01T04:47:58.984Z,89.27
2019-05-01T04:50:28.939Z,72.07
2019-05-01T04:52:59.240Z,72.80
2019-05-01T04:55:29.035Z,62.43
2019-05-01T04:57:58.453Z,49.30
2019-05-01T05:00:27.894Z,48.60
2019-05-01T05:03:04.904Z,40.23
2019-05-01T05:05:34.007Z,48.33
2019-05-01T05:08:04.093Z,48.17
2019-05-01T05:10:33.848Z,64.70
2019-05-01T05:13:09.171Z,53.97
2019-05-01T05:16:06.936Z,41.60
2019-05-01T05:18:36.995Z,43.53
2019-05-01T05:21:06.444Z,46.53
2019-05-01T05:23:36.375Z,46.83
2019-05-01T05:26:05.695Z,42.20
2019-05-01T05:28:36.399Z,39.03
2019-05-01T05:31:07.025Z,39.53
2019-05-01T05:33:38.996Z,39.60
2019-05-01T05:36:11.345Z,39.67
2019-05-01T05:39:00.849Z,36.87
2019-05-01T05:41:31.648Z,39.77
2019-05-01T05:44:01.992Z,39.07
2019-05-01T05:46:31.674Z,38.30
2019-05-01T05:49:01.067Z,37.63
2019-05-01T05:52:04.538Z,33.67
2019-05-01T05:54:54.641Z,34.60
2019-05-01T05:57:35.890Z,35.80
2019-05-01T06:00:29.151Z,36.00
2019-05-01T06:03:31.233Z,36.80
2019-05-01T06:06:16.864Z,35.40
2019-05-01T06:08:49.065Z,32.90
2019-05-01T06:11:51.651Z,34.40
2019-05-01T06:14:39.321Z,32.80
2019-05-01T06:17:42.947Z,33.93
2019-05-01T06:20:29.988Z,29.93
2019-05-01T06:23:20.619Z,31.27
2019-05-01T06:25:54.245Z,34.07
2019-05-01T06:28:24.930Z,30.40
2019-05-01T06:30:57.266Z,31.93
2019-05-01T06:33:26.717Z,30.53
2019-05-01T06:35:56.038Z,31.17
2019-05-01T06:38:25.520Z,30.50
2019-05-01T06:40:58.114Z,28.47
2019-05-01T06:44:07.314Z,25.97
2019-05-01T06:46:58.260Z,27.10
2019-05-01T06:49:44.757Z,26.53
2019-05-01T06:52:18.351Z,24.43
2019-05-01T06:54:52.099Z,24.97
2019-05-01T06:57:19.164Z,24.30
2019-05-01T06:59:48.781Z,23.53
2019-05-01T07:02:19.155Z,23.80
2019-05-01T07:04:50.812Z,24.47
2019-05-01T07:07:25.913Z,23.63
2019-05-01T07:09:55.509Z,23.67
2019-05-01T07:12:28.354Z,23.97
2019-05-01T07:15:00.271Z,24.13
2019-05-01T07:17:29.558Z,26.10
2019-05-01T07:20:30.667Z,22.73
2019-05-01T07:23:00.369Z,25.30
2019-05-01T07:25:29.625Z,23.43
2019-05-01T07:27:59.748Z,24.03
2019-05-01T07:30:41.547Z,22.33
2019-05-01T07:33:12.103Z,23.20
2019-05-01T07:35:43.228Z,23.67
2019-05-01T07:38:12.765Z,24.60
2019-05-01T07:40:42.677Z,22.23
2019-05-01T07:43:19.027Z,22.67
2019-05-01T07:45:57.672Z,22.93
2019-05-01T07:48:36.139Z,22.53
2019-05-01T07:51:06.856Z,22.57
2019-05-01T07:53:38.259Z,24.20
2019-05-01T07:56:08.841Z,23.73
2019-05-01T07:58:39.314Z,21.20
2019-05-01T08:01:24.125Z,22.33
2019-05-01T08:03:53.623Z,20.57
2019-05-01T08:06:22.998Z,22.03
2019-05-01T08:08:52.315Z,22.20
2019-05-01T08:11:21.657Z,23.00
2019-05-01T08:13:50.930Z,22.20
2019-05-01T08:16:20.254Z,22.50
2019-05-01T08:19:11.645Z,23.90
2019-05-01T08:21:56.908Z,23.73
2019-05-01T08:24:24.751Z,24.30
2019-05-01T08:26:54.308Z,24.70
2019-05-01T08:29:42.162Z,25.83
2019-05-01T08:32:25.668Z,24.07
2019-05-01T08:35:00.568Z,23.63
2019-05-01T08:37:27.981Z,24.67
2019-05-01T08:39:57.315Z,24.37
2019-05-01T08:42:26.841Z,21.70
2019-05-01T08:45:13.545Z,21.27
2019-05-01T08:47:45.160Z,21.23
2019-05-01T08:50:19.812Z,21.43
2019-05-01T08:52:48.705Z,20.43
2019-05-01T08:55:18.065Z,21.17
2019-05-01T08:57:47.394Z,21.10
2019-05-01T09:00:16.855Z,20.40
2019-05-01T09:02:46.171Z,22.37
2019-05-01T09:05:28.558Z,23.27
2019-05-01T09:07:50.856Z,23.13
2019-05-01T09:10:21.661Z,21.87
2019-05-01T09:12:51.982Z,23.50
2019-05-01T09:15:20.232Z,22.73
2019-05-01T09:17:49.561Z,23.80
2019-05-01T09:20:18.938Z,24.53
2019-05-01T09:22:48.307Z,24.17
2019-05-01T09:25:20.859Z,23.70
2019-05-01T09:27:59.542Z,24.23
2019-05-01T09:30:36.162Z,25.00
2019-05-01T09:33:05.725Z,23.70
2019-05-01T09:35:35.052Z,24.47
2019-05-01T09:38:04.567Z,24.23
2019-05-01T09:40:34.034Z,24.17
2019-05-01T09:43:03.445Z,25.03
2019-05-01T09:45:34.368Z,25.33
2019-05-01T09:48:03.765Z,26.20
2019-05-01T09:50:34.728Z,26.23
2019-05-01T09:53:12.131Z,26.40
2019-05-01T09:55:48.688Z,27.20
2019-05-01T09:58:18.074Z,28.50
2019-05-01T10:00:48.795Z,27.47
2019-05-01T10:03:18.514Z,24.53
2019-05-01T10:05:47.951Z,25.17
2019-05-01T10:08:17.243Z,25.00
2019-05-01T10:10:46.570Z,24.07
2019-05-01T10:13:17.679Z,23.13
2019-05-01T10:15:47.486Z,24.27
2019-05-01T10:18:16.742Z,25.33
2019-05-01T10:20:46.290Z,24.33
2019-05-01T10:23:15.594Z,24.03
2019-05-01T10:25:49.801Z,22.43
2019-05-01T10:28:29.254Z,21.03
2019-05-01T10:31:26.568Z,21.43
2019-05-01T10:34:02.905Z,20.83
2019-05-01T10:36:39.313Z,21.10
2019-05-01T10:39:09.674Z,20.93
2019-05-01T10:41:41.083Z,20.43
2019-05-01T10:44:10.250Z,22.03
2019-05-01T10:46:39.574Z,21.20
2019-05-01T10:49:08.839Z,20.27
2019-05-01T10:51:38.128Z,21.23
2019-05-01T10:54:07.610Z,21.63
2019-05-01T10:56:36.980Z,21.20
2019-05-01T10:59:06.374Z,21.43
2019-05-01T11:01:45.251Z,20.17
2019-05-01T11:04:14.576Z,20.10
2019-05-01T11:06:43.844Z,21.80
2019-05-01T11:09:13.363Z,19.57
2019-05-01T11:11:42.684Z,20.50
2019-05-01T11:14:11.947Z,20.17
2019-05-01T11:16:41.317Z,19.17
2019-05-01T11:19:11.116Z,19.90
2019-05-01T11:21:40.411Z,20.57
2019-05-01T11:24:09.761Z,20.33
2019-05-01T11:26:39.236Z,21.10
2019-05-01T11:29:08.535Z,20.67
2019-05-01T11:32:02.823Z,21.93
2019-05-01T11:34:54.091Z,21.27
2019-05-01T11:37:37.924Z,20.73
2019-05-01T11:40:15.546Z,20.53
2019-05-01T11:42:44.894Z,20.43
2019-05-01T11:45:14.610Z,20.93
2019-05-01T11:47:43.978Z,21.03
2019-05-01T11:50:13.404Z,21.00
2019-05-01T11:52:42.735Z,20.67
2019-05-01T11:55:13.554Z,20.80
2019-05-01T11:57:43.126Z,20.13
2019-05-01T12:00:14.919Z,20.70
2019-05-01T12:02:44.497Z,22.00
2019-05-01T12:05:14.329Z,22.00
2019-05-01T12:07:43.630Z,21.77
2019-05-01T12:10:14.401Z,21.30
2019-05-01T12:12:43.898Z,21.30
2019-05-01T12:15:13.386Z,21.47
2019-05-01T12:17:48.248Z,21.43
2019-05-01T12:20:18.490Z,21.77
2019-05-01T12:22:51.030Z,22.43
2019-05-01T12:25:19.259Z,21.80
2019-05-01T12:27:48.571Z,23.47
2019-05-01T12:30:18.281Z,23.20
2019-05-01T12:32:47.677Z,23.83
2019-05-01T12:35:17.128Z,22.70
2019-05-01T12:37:46.377Z,22.57
2019-05-01T12:40:21.215Z,22.37
2019-05-01T12:42:50.495Z,22.17
2019-05-01T12:45:19.836Z,22.80
2019-05-01T12:48:00.594Z,22.93
2019-05-01T12:50:29.945Z,21.90
2019-05-01T12:53:30.529Z,22.17
2019-05-01T12:56:17.389Z,21.03
2019-05-01T12:58:47.979Z,21.37
2019-05-01T13:01:17.426Z,22.83
2019-05-01T13:03:46.814Z,23.33
2019-05-01T13:06:16.300Z,21.70
2019-05-01T13:08:45.548Z,21.00
2019-05-01T13:11:14.862Z,22.63
2019-05-01T13:13:44.263Z,21.30
2019-05-01T13:16:13.522Z,22.10
2019-05-01T13:18:42.852Z,22.87
2019-05-01T13:21:12.320Z,21.03
2019-05-01T13:23:41.705Z,23.43
2019-05-01T13:26:18.684Z,21.83
2019-05-01T13:28:58.861Z,21.57
2019-05-01T13:31:47.586Z,21.83
2019-05-01T13:34:16.920Z,20.23
2019-05-01T13:36:46.179Z,20.97
2019-05-01T13:39:15.836Z,21.07
2019-05-01T13:41:45.187Z,21.10
2019-05-01T13:44:14.512Z,19.57
2019-05-01T13:46:43.926Z,18.87
2019-05-01T13:49:13.271Z,20.03
2019-05-01T13:51:42.562Z,19.20
2019-05-01T13:54:11.905Z,19.33
2019-05-01T13:56:41.240Z,19.00
2019-05-01T13:59:13.581Z,18.73
2019-05-01T14:01:43.056Z,17.50
2019-05-01T14:04:13.367Z,17.73
2019-05-01T14:06:42.815Z,18.60
2019-05-01T14:09:16.482Z,17.87
2019-05-01T14:11:46.001Z,17.17
2019-05-01T14:14:15.315Z,16.37
2019-05-01T14:16:44.687Z,16.63
2019-05-01T14:19:14.753Z,17.67
2019-05-01T14:21:53.645Z,16.50
2019-05-01T14:24:30.873Z,16.97
2019-05-01T14:27:00.393Z,16.50
2019-05-01T14:29:29.741Z,15.60
2019-05-01T14:31:59.065Z,15.93
2019-05-01T14:34:28.455Z,15.70
2019-05-01T14:36:57.797Z,15.70
2019-05-01T14:39:27.265Z,15.43
2019-05-01T14:41:56.649Z,15.77
2019-05-01T14:44:36.198Z,16.33
2019-05-01T14:46:57.260Z,15.00
2019-05-01T14:49:26.648Z,16.00
2019-05-01T14:51:55.989Z,16.50
2019-05-01T14:54:25.306Z,16.17
2019-05-01T14:56:54.655Z,16.67
2019-05-01T14:59:23.931Z,16.33
2019-05-01T15:01:53.252Z,16.03
2019-05-01T15:04:22.560Z,17.50
2019-05-01T15:06:51.921Z,17.20
2019-05-01T15:09:21.634Z,17.10
2019-05-01T15:11:50.977Z,17.87
2019-05-01T15:14:30.385Z,17.77
2019-05-01T15:17:36.939Z,17.30
2019-05-01T15:20:07.760Z,17.33
2019-05-01T15:22:37.079Z,17.23
2019-05-01T15:25:06.550Z,17.10
2019-05-01T15:27:35.954Z,18.23
2019-05-01T15:30:06.249Z,17.57
2019-05-01T15:32:35.642Z,17.63
2019-05-01T15:35:05.853Z,16.53
2019-05-01T15:37:35.470Z,16.00
2019-05-01T15:40:13.014Z,17.60
2019-05-01T15:42:46.711Z,17.73
2019-05-01T15:45:16.713Z,17.57
2019-05-01T15:47:46.191Z,17.33
2019-05-01T15:50:15.700Z,17.43
2019-05-01T15:52:45.215Z,17.50
2019-05-01T15:55:14.529Z,15.80
2019-05-01T15:57:43.837Z,16.10
2019-05-01T16:00:17.299Z,15.83
2019-05-01T16:02:46.656Z,17.00
2019-05-01T16:05:16.148Z,15.97
2019-05-01T16:07:45.664Z,17.50
2019-05-01T16:10:18.417Z,18.13
2019-05-01T16:12:59.885Z,16.83
2019-05-01T16:15:36.110Z,17.07
2019-05-01T16:18:05.855Z,17.27
2019-05-01T16:20:35.197Z,17.00
2019-05-01T16:23:04.783Z,16.47
2019-05-01T16:25:34.389Z,15.93
2019-05-01T16:28:03.704Z,17.37
2019-05-01T16:30:33.061Z,16.37
2019-05-01T16:33:02.490Z,16.70
2019-05-01T16:35:31.795Z,16.70
2019-05-01T16:38:02.771Z,16.77
2019-05-01T16:40:56.897Z,16.47
2019-05-01T16:43:26.387Z,15.80
2019-05-01T16:45:55.867Z,15.00
2019-05-01T16:48:25.422Z,15.30
2019-05-01T16:50:54.717Z,15.97
2019-05-01T16:53:24.815Z,15.33
2019-05-01T16:55:54.352Z,14.90
2019-05-01T16:58:24.279Z,15.03
2019-05-01T17:01:01.479Z,14.63
2019-05-01T17:03:39.427Z,14.43
2019-05-01T17:06:36.617Z,14.97
2019-05-01T17:09:32.645Z,14.57
2019-05-01T17:12:02.197Z,13.27
2019-05-01T17:14:31.542Z,14.37
2019-05-01T17:17:00.907Z,14.03
2019-05-01T17:19:30.487Z,13.53
2019-05-01T17:21:59.772Z,14.50
2019-05-01T17:24:29.094Z,15.23
2019-05-01T17:26:58.623Z,14.57
2019-05-01T17:29:27.945Z,14.40
2019-05-01T17:31:57.351Z,14.20
2019-05-01T17:34:30.697Z,14.40
2019-05-01T17:36:57.768Z,13.87
2019-05-01T17:39:27.148Z,14.53
2019-05-01T17:41:57.574Z,13.97
2019-05-01T17:44:27.544Z,14.20
2019-05-01T17:46:57.119Z,13.53
2019-05-01T17:49:26.465Z,14.47
2019-05-01T17:51:55.819Z,14.70
2019-05-01T17:54:25.359Z,13.87
2019-05-01T17:56:55.782Z,14.07
2019-05-01T17:59:25.198Z,14.33
2019-05-01T18:02:16.257Z,14.60
2019-05-01T18:05:05.062Z,14.17
2019-05-01T18:07:35.008Z,15.43
2019-05-01T18:10:05.131Z,14.57
2019-05-01T18:12:34.493Z,14.77
2019-05-01T18:15:04.295Z,15.07
2019-05-01T18:17:33.594Z,14.30
2019-05-01T18:20:02.995Z,14.97
2019-05-01T18:23:02.444Z,14.43
2019-05-01T18:25:45.539Z,14.33
2019-05-01T18:28:31.752Z,14.40
2019-05-01T18:31:01.153Z,14.37
2019-05-01T18:33:30.451Z,14.53
2019-05-01T18:36:00.026Z,13.93
2019-05-01T18:38:43.011Z,14.63
2019-05-01T18:41:31.627Z,15.20
2019-05-01T18:44:05.219Z,14.80
2019-05-01T18:46:32.244Z,17.67
2019-05-01T18:49:01.855Z,17.10
2019-05-01T18:51:31.168Z,16.33
2019-05-01T18:54:00.711Z,16.50
2019-05-01T18:56:30.031Z,16.63
2019-05-01T18:58:59.288Z,16.83
2019-05-01T19:01:28.625Z,18.57
2019-05-01T19:03:58.012Z,15.87
2019-05-01T19:06:40.094Z,16.67
2019-05-01T19:08:58.452Z,16.87
2019-05-01T19:11:27.913Z,16.90
2019-05-01T19:13:57.220Z,17.43
2019-05-01T19:16:26.608Z,17.67
2019-05-01T19:18:55.958Z,16.87
2019-05-01T19:21:27.330Z,17.27
2019-05-01T19:24:00.432Z,18.23
2019-05-01T19:26:27.846Z,17.47
2019-05-01T19:28:57.425Z,19.30
2019-05-01T19:31:26.702Z,18.20
2019-05-01T19:33:56.030Z,17.57
2019-05-01T19:36:25.737Z,17.63
2019-05-01T19:38:55.126Z,18.30
2019-05-01T19:41:24.691Z,17.80
2019-05-01T19:43:54.075Z,16.50
2019-05-01T19:46:23.422Z,17.07
2019-05-01T19:48:52.806Z,15.23
2019-05-01T19:51:23.999Z,15.33
2019-05-01T19:53:53.550Z,14.63
2019-05-01T19:56:23.259Z,15.07
2019-05-01T19:58:52.596Z,15.53
2019-05-01T20:01:21.866Z,14.57
2019-05-01T20:03:51.345Z,14.60
2019-05-01T20:06:20.658Z,13.83
2019-05-01T20:08:49.960Z,14.20
2019-05-01T20:11:19.392Z,14.93
2019-05-01T20:13:48.708Z,13.97
2019-05-01T20:16:18.997Z,14.20
2019-05-01T20:18:48.682Z,14.23
2019-05-01T20:21:18.007Z,13.30
2019-05-01T20:23:47.261Z,13.83
2019-05-01T20:26:16.589Z,14.57
2019-05-01T20:28:47.154Z,14.17
2019-05-01T20:31:17.932Z,14.63
2019-05-01T20:33:47.874Z,14.00
2019-05-01T20:36:17.626Z,12.40
2019-05-01T20:38:47.215Z,12.23
2019-05-01T20:41:18.056Z,12.00
2019-05-01T20:43:47.484Z,11.20
2019-05-01T20:46:21.291Z,11.20
2019-05-01T20:48:48.446Z,11.50
2019-05-01T20:51:20.176Z,11.33
2019-05-01T20:53:48.846Z,10.80
2019-05-01T20:56:38.438Z,10.97
2019-05-01T20:59:07.756Z,11.17
2019-05-01T21:01:37.120Z,10.83
2019-05-01T21:04:43.490Z,10.43
2019-05-01T21:07:20.108Z,10.37
2019-05-01T21:09:56.969Z,9.60
2019-05-01T21:12:21.520Z,10.80
2019-05-01T21:14:51.059Z,10.23
2019-05-01T21:17:20.465Z,9.90
2019-05-01T21:19:49.757Z,9.90
2019-05-01T21:22:18.994Z,10.00
2019-05-01T21:24:48.356Z,9.63
2019-05-01T21:27:18.206Z,9.80
2019-05-01T21:29:48.073Z,10.10
2019-05-01T21:32:18.174Z,9.50
2019-05-01T21:34:48.440Z,10.33
2019-05-01T21:37:17.840Z,10.27
2019-05-01T21:39:47.122Z,9.63
2019-05-01T21:42:16.443Z,10.20
2019-05-01T21:44:45.960Z,9.37
2019-05-01T21:47:15.343Z,9.53
2019-05-01T21:49:44.806Z,9.73
2019-05-01T21:52:18.026Z,10.03
2019-05-01T21:54:45.124Z,9.77
2019-05-01T21:57:17.406Z,10.07
2019-05-01T21:59:48.117Z,10.00
2019-05-01T22:02:16.573Z,8.73
2019-05-01T22:04:45.881Z,10.07
2019-05-01T22:07:15.240Z,9.33
2019-05-01T22:09:45.743Z,9.83
2019-05-01T22:12:15.852Z,10.17
2019-05-01T22:14:52.794Z,10.20
2019-05-01T22:17:32.198Z,10.17
2019-05-01T22:20:00.033Z,9.97
2019-05-01T22:22:47.234Z,9.70
2019-05-01T22:25:26.326Z,9.93
2019-05-01T22:28:02.400Z,9.90
2019-05-01T22:30:42.294Z,10.27
2019-05-01T22:33:09.527Z,9.90
2019-05-01T22:35:42.387Z,9.83
2019-05-01T22:38:12.004Z,9.57
2019-05-01T22:41:05.986Z,9.60
2019-05-01T22:43:29.456Z,9.13
2019-05-01T22:46:01.692Z,9.17
2019-05-01T22:48:30.105Z,8.83
2019-05-01T22:51:03.805Z,8.50
2019-05-01T22:53:33.311Z,8.07
2019-05-01T22:56:04.054Z,8.40
2019-05-01T22:58:33.584Z,7.77
2019-05-01T23:01:04.161Z,7.53
2019-05-01T23:03:52.377Z,7.57
2019-05-01T23:06:21.942Z,7.90
2019-05-01T23:08:51.247Z,7.90
2019-05-01T23:11:21.379Z,7.40
2019-05-01T23:13:50.887Z,7.60
2019-05-01T23:16:21.994Z,8.10
2019-05-01T23:18:51.841Z,7.20
2019-05-01T23:21:22.511Z,7.60
2019-05-01T23:23:52.025Z,8.00
2019-05-01T23:26:21.324Z,8.13
2019-05-01T23:28:50.729Z,7.40
2019-05-01T23:31:20.371Z,7.97
2019-05-01T23:33:50.689Z,7.93
2019-05-01T23:36:23.740Z,8.00
2019-05-01T23:38:52.159Z,8.27
2019-05-01T23:41:23.057Z,8.27
2019-05-01T23:43:52.688Z,7.50
2019-05-01T23:46:21.930Z,8.30
2019-05-01T23:48:51.274Z,7.50
2019-05-01T23:51:23.610Z,7.00
2019-05-01T23:53:51.778Z,7.70
2019-05-01T23:56:21.220Z,6.30
2019-05-01T23:58:50.721Z,7.20
